Time;durP1;ratioP1;P1;durP2;ratioP2;P2;SDS_P1;SDS_P2;PMS_P1;PMS_P2;Temp;Humidity;BMP_temperature;BMP_pressure;BME280_temperature;BME280_humidity;BME280_pressure;Samples;Min_cycle;Max_cycle;Signal;HPM_P1;HPM_P2
2023/12/14 00:01:22;;;;;;;2.90;2.10;;;7.50;99.90;;;;;;4993951;28;20461;-74
2023/12/14 00:03:48;;;;;;;3.63;2.53;;;7.50;99.90;;;;;;4992717;28;20225;-74
2023/12/14 00:06:14;;;;;;;2.73;2.17;;;7.50;99.90;;;;;;4994801;28;20256;-74
2023/12/14 00:08:40;;;;;;;3.00;2.30;;;7.50;99.90;;;;;;4993489;28;20246;-73
2023/12/14 00:11:07;;;;;;;5.33;2.77;;;7.50;99.90;;;;;;4994758;28;21016;-73
2023/12/14 00:13:33;;;;;;;2.40;2.20;;;7.50;99.90;;;;;;4994903;28;20981;-74
2023/12/14 00:15:59;;;;;;;2.93;2.10;;;7.50;99.90;;;;;;4999401;28;20477;-74
2023/12/14 00:18:26;;;;;;;2.70;2.37;;;7.50;99.90;;;;;;4996735;28;20492;-74
2023/12/14 00:20:52;;;;;;;2.20;2.07;;;7.50;99.90;;;;;;4994414;28;20461;-73
2023/12/14 00:23:18;;;;;;;2.63;2.30;;;7.50;99.90;;;;;;4999390;28;20472;-72
2023/12/14 00:25:44;;;;;;;2.87;2.30;;;7.50;99.90;;;;;;4985403;28;20551;-74
2023/12/14 00:28:09;;;;;;;2.60;2.27;;;7.50;99.90;;;;;;4997034;28;20504;-74
2023/12/14 00:30:35;;;;;;;2.80;2.60;;;7.50;99.90;;;;;;4990735;28;20222;-74
2023/12/14 00:33:01;;;;;;;3.47;3.07;;;7.60;99.90;;;;;;4995344;28;20219;-73
2023/12/14 00:35:26;;;;;;;2.90;2.50;;;7.60;99.90;;;;;;4991673;28;20233;-71
2023/12/14 00:37:52;;;;;;;3.90;2.70;;;7.50;99.90;;;;;;4994209;28;20767;-73
2023/12/14 00:40:18;;;;;;;2.83;2.50;;;7.50;99.90;;;;;;4990545;28;20237;-72
2023/12/14 00:42:44;;;;;;;5.43;2.90;;;7.60;99.90;;;;;;4989921;28;20240;-73
2023/12/14 00:45:10;;;;;;;4.70;2.60;;;7.50;99.90;;;;;;4979633;28;20226;-74
2023/12/14 00:47:35;;;;;;;2.80;2.40;;;7.50;99.90;;;;;;4993661;28;20214;-74
2023/12/14 00:50:02;;;;;;;5.83;2.63;;;7.50;99.90;;;;;;4991348;28;20638;-73
2023/12/14 00:52:28;;;;;;;2.40;2.20;;;7.40;99.90;;;;;;4988064;28;20221;-73
2023/12/14 00:54:53;;;;;;;3.00;2.50;;;7.40;99.90;;;;;;4977129;28;20978;-73
2023/12/14 00:57:19;;;;;;;5.60;2.40;;;7.40;99.90;;;;;;4997003;28;20469;-73
2023/12/14 00:59:45;;;;;;;2.93;2.53;;;7.40;99.90;;;;;;4991458;28;20313;-74
2023/12/14 01:02:11;;;;;;;3.50;2.47;;;7.50;99.90;;;;;;4984862;28;20233;-73
2023/12/14 01:04:37;;;;;;;3.47;2.80;;;7.50;99.90;;;;;;4987401;28;20311;-74
2023/12/14 01:07:03;;;;;;;3.07;2.53;;;7.50;99.90;;;;;;4992882;28;20469;-74
2023/12/14 01:09:29;;;;;;;3.27;2.47;;;7.50;99.90;;;;;;4991288;28;20214;-73
2023/12/14 01:11:55;;;;;;;5.27;3.17;;;7.40;99.90;;;;;;4996761;28;20495;-73
2023/12/14 01:14:21;;;;;;;4.47;2.33;;;7.40;99.90;;;;;;4993141;28;20738;-73
2023/12/14 01:16:46;;;;;;;5.40;2.73;;;7.40;99.90;;;;;;4993679;28;20293;-74
2023/12/14 01:19:12;;;;;;;2.83;2.63;;;7.50;99.90;;;;;;4993173;28;20214;-73
2023/12/14 01:21:38;;;;;;;5.97;3.20;;;7.50;99.90;;;;;;4991179;28;20755;-73
2023/12/14 01:24:04;;;;;;;3.70;2.60;;;7.50;99.90;;;;;;5004829;28;20718;-73
2023/12/14 01:26:29;;;;;;;2.90;1.83;;;7.50;99.90;;;;;;4991039;28;20223;-73
2023/12/14 01:28:55;;;;;;;2.30;2.10;;;7.50;99.90;;;;;;4995269;28;20444;-74
2023/12/14 01:31:24;;;;;;;7.73;3.70;;;7.50;99.90;;;;;;4980713;28;20708;-73
2023/12/14 01:33:50;;;;;;;2.10;1.90;;;7.50;99.90;;;;;;4994407;28;20222;-73
2023/12/14 01:36:23;;;;;;;2.60;2.30;;;7.50;99.90;;;;;;4985800;28;20476;-74
2023/12/14 01:38:49;;;;;;;6.43;2.87;;;7.50;99.90;;;;;;4997550;28;20461;-74
2023/12/14 01:41:15;;;;;;;3.23;2.13;;;7.60;99.90;;;;;;5005187;28;20485;-74
2023/12/14 01:43:41;;;;;;;4.80;2.70;;;7.60;99.90;;;;;;4989067;28;20544;-74
2023/12/14 01:46:07;;;;;;;2.80;2.30;;;7.60;99.90;;;;;;5001547;28;20720;-74
2023/12/14 01:48:32;;;;;;;2.87;2.37;;;7.60;99.90;;;;;;4983695;28;20280;-73
2023/12/14 01:50:58;;;;;;;3.37;2.63;;;7.60;99.90;;;;;;5002977;28;20276;-74
2023/12/14 01:53:24;;;;;;;2.20;1.97;;;7.60;99.90;;;;;;5001440;28;20837;-74
2023/12/14 01:55:49;;;;;;;4.23;2.90;;;7.60;99.90;;;;;;4998425;28;20244;-74
2023/12/14 01:58:15;;;;;;;3.47;2.40;;;7.60;99.90;;;;;;4994337;28;20256;-74
2023/12/14 02:00:50;;;;;;;3.57;2.13;;;7.60;99.90;;;;;;5003746;28;20263;-74
2023/12/14 02:03:16;;;;;;;2.17;2.00;;;7.60;99.90;;;;;;4995249;28;20218;-74
2023/12/14 02:05:42;;;;;;;3.57;2.40;;;7.60;99.90;;;;;;4998989;28;20480;-74
2023/12/14 02:08:08;;;;;;;2.90;2.50;;;7.60;99.90;;;;;;4994466;28;20457;-71
2023/12/14 02:10:34;;;;;;;3.20;2.30;;;7.60;99.90;;;;;;4984594;28;20240;-74
2023/12/14 02:13:03;;;;;;;2.60;2.40;;;7.60;99.90;;;;;;5006453;28;20736;-72
2023/12/14 02:15:29;;;;;;;5.57;2.40;;;7.60;99.90;;;;;;4976519;28;20479;-73
2023/12/14 02:17:55;;;;;;;3.00;2.20;;;7.60;99.90;;;;;;5000830;28;20457;-73
2023/12/14 02:20:21;;;;;;;3.07;2.40;;;7.60;99.90;;;;;;5009445;28;20462;-74
2023/12/14 02:22:56;;;;;;;3.63;2.47;;;7.60;99.90;;;;;;4981801;28;20284;-74
2023/12/14 02:25:23;;;;;;;3.77;2.47;;;7.60;99.90;;;;;;5000530;28;20558;-73
2023/12/14 02:27:51;;;;;;;4.50;2.00;;;7.60;99.90;;;;;;4992537;28;20515;-74
2023/12/14 02:30:17;;;;;;;2.13;1.93;;;7.60;99.90;;;;;;4998706;28;20543;-74
2023/12/14 02:32:43;;;;;;;4.13;2.30;;;7.60;99.90;;;;;;4980961;28;20471;-74
2023/12/14 02:35:09;;;;;;;6.10;1.90;;;7.60;99.90;;;;;;5002683;28;20468;-74
2023/12/14 02:37:40;;;;;;;3.97;2.20;;;7.60;99.90;;;;;;5004832;28;20228;-74
2023/12/14 02:40:06;;;;;;;2.07;1.90;;;7.60;99.90;;;;;;4987287;28;20241;-72
2023/12/14 02:42:33;;;;;;;3.20;2.20;;;7.60;99.90;;;;;;4985909;28;20489;-74
2023/12/14 02:44:58;;;;;;;3.80;2.23;;;7.60;99.90;;;;;;4984281;28;20474;-74
2023/12/14 02:47:24;;;;;;;1.50;1.40;;;7.60;99.90;;;;;;4991494;28;20994;-74
2023/12/14 02:49:50;;;;;;;2.93;1.93;;;7.60;99.90;;;;;;5002637;28;20241;-74
2023/12/14 02:52:15;;;;;;;2.50;2.10;;;7.60;99.90;;;;;;5003267;28;20696;-73
2023/12/14 02:54:41;;;;;;;4.43;2.17;;;7.60;99.90;;;;;;4998366;28;20211;-74
2023/12/14 02:57:07;;;;;;;4.23;2.53;;;7.60;99.90;;;;;;4994660;28;20597;-73
2023/12/14 02:59:32;;;;;;;2.13;1.60;;;7.60;99.90;;;;;;4997258;28;20218;-73
2023/12/14 03:01:59;;;;;;;2.40;2.07;;;7.60;99.90;;;;;;4982772;28;20250;-74
2023/12/14 03:04:25;;;;;;;1.70;1.60;;;7.60;99.90;;;;;;5001317;28;20226;-74
2023/12/14 03:06:51;;;;;;;2.97;1.57;;;7.60;99.90;;;;;;5000877;28;20515;-74
2023/12/14 03:09:18;;;;;;;1.50;1.40;;;7.50;99.90;;;;;;5004951;28;20249;-74
2023/12/14 03:11:45;;;;;;;2.30;1.57;;;7.50;99.90;;;;;;5011142;28;20210;-74
2023/12/14 03:14:10;;;;;;;1.83;1.50;;;7.50;99.90;;;;;;4994682;28;20910;-74
2023/12/14 03:16:36;;;;;;;1.53;1.30;;;7.50;99.90;;;;;;4993659;28;20532;-74
2023/12/14 03:19:03;;;;;;;3.60;1.13;;;7.50;99.90;;;;;;5015692;28;20454;-74
2023/12/14 03:21:29;;;;;;;2.27;1.73;;;7.40;99.90;;;;;;4988037;28;20301;-74
2023/12/14 03:23:55;;;;;;;1.57;1.43;;;7.40;99.90;;;;;;4997235;28;20516;-74
2023/12/14 03:26:21;;;;;;;3.60;1.57;;;7.40;99.90;;;;;;4998809;28;20481;-72
2023/12/14 03:28:46;;;;;;;2.23;1.60;;;7.40;99.90;;;;;;4994782;28;20245;-74
2023/12/14 03:31:15;;;;;;;3.70;2.10;;;7.40;99.90;;;;;;4995900;28;20330;-72
2023/12/14 03:33:42;;;;;;;1.60;1.50;;;7.40;99.90;;;;;;4985051;28;20218;-73
2023/12/14 03:36:08;;;;;;;2.10;1.90;;;7.40;99.90;;;;;;4995041;28;20532;-74
2023/12/14 03:38:34;;;;;;;1.70;1.50;;;7.40;99.90;;;;;;4999566;28;20460;-73
2023/12/14 03:41:00;;;;;;;3.20;1.63;;;7.50;99.90;;;;;;5003308;28;20602;-74
2023/12/14 03:43:25;;;;;;;1.63;1.33;;;7.40;99.90;;;;;;4995707;28;20226;-74
2023/12/14 03:45:51;;;;;;;2.50;2.07;;;7.50;99.90;;;;;;5001053;28;20476;-74
2023/12/14 03:48:17;;;;;;;2.73;1.60;;;7.50;99.90;;;;;;4989415;28;20237;-73
2023/12/14 03:50:42;;;;;;;1.50;1.40;;;7.50;99.90;;;;;;4998798;28;20210;-74
2023/12/14 03:53:08;;;;;;;2.33;1.67;;;7.50;99.90;;;;;;5000967;28;20217;-74
2023/12/14 03:55:34;;;;;;;3.13;1.60;;;7.50;99.90;;;;;;4996488;28;20587;-73
2023/12/14 03:58:00;;;;;;;2.43;1.80;;;7.50;99.90;;;;;;5003598;28;20229;-74
2023/12/14 04:00:26;;;;;;;2.10;1.73;;;7.50;99.90;;;;;;4994569;28;20218;-74
2023/12/14 04:02:52;;;;;;;2.20;1.70;;;7.50;99.90;;;;;;4993567;28;20463;-74
2023/12/14 04:05:18;;;;;;;2.43;2.00;;;7.50;99.90;;;;;;4979927;28;20279;-74
2023/12/14 04:07:43;;;;;;;3.20;2.00;;;7.40;99.90;;;;;;5000208;28;20251;-74
2023/12/14 04:10:10;;;;;;;2.80;2.20;;;7.40;99.90;;;;;;5003636;28;20695;-73
2023/12/14 04:12:37;;;;;;;3.07;1.70;;;7.40;99.90;;;;;;4992425;28;20215;-73
2023/12/14 04:15:04;;;;;;;1.90;1.70;;;7.40;99.90;;;;;;4993211;28;20461;-74
2023/12/14 04:17:31;;;;;;;4.37;2.70;;;7.40;99.90;;;;;;4979622;28;20542;-73
2023/12/14 04:19:56;;;;;;;3.07;2.27;;;7.40;99.90;;;;;;4991278;28;20445;-74
2023/12/14 04:22:22;;;;;;;2.50;1.73;;;7.30;99.90;;;;;;4976623;28;20479;-73
2023/12/14 04:24:48;;;;;;;2.23;1.93;;;7.30;99.90;;;;;;4977314;28;20237;-74
2023/12/14 04:27:14;;;;;;;6.10;2.37;;;7.30;99.90;;;;;;5002528;28;20350;-74
2023/12/14 04:29:40;;;;;;;3.77;2.70;;;7.30;99.90;;;;;;4981649;28;20224;-74
2023/12/14 04:32:06;;;;;;;2.60;1.93;;;7.30;99.90;;;;;;4994955;28;20456;-73
2023/12/14 04:34:32;;;;;;;6.80;3.23;;;7.30;99.90;;;;;;4989335;28;20225;-73
2023/12/14 04:36:57;;;;;;;3.57;2.30;;;7.30;99.90;;;;;;5002945;28;20226;-73
2023/12/14 04:39:27;;;;;;;3.30;2.23;;;7.30;99.90;;;;;;4995132;28;20283;-74
2023/12/14 04:41:53;;;;;;;4.00;2.60;;;7.30;99.90;;;;;;4995863;28;20219;-74
2023/12/14 04:44:21;;;;;;;3.20;2.67;;;7.30;99.90;;;;;;4976312;28;20468;-74
2023/12/14 04:46:47;;;;;;;3.90;2.30;;;7.30;99.90;;;;;;4996234;28;20528;-74
2023/12/14 04:49:13;;;;;;;5.10;2.67;;;7.40;99.90;;;;;;5001995;28;20465;-74
2023/12/14 04:51:39;;;;;;;4.03;2.67;;;7.30;99.90;;;;;;4985039;28;20539;-74
2023/12/14 04:54:05;;;;;;;3.67;2.63;;;7.40;99.90;;;;;;4991377;28;20535;-73
2023/12/14 04:56:30;;;;;;;4.00;2.80;;;7.40;99.90;;;;;;4999305;28;20598;-73
2023/12/14 04:58:56;;;;;;;5.23;2.83;;;7.50;99.90;;;;;;4996515;28;20226;-74
2023/12/14 05:01:22;;;;;;;7.10;2.70;;;7.40;99.90;;;;;;4993628;28;20270;-73
2023/12/14 05:03:48;;;;;;;4.70;2.70;;;7.40;99.90;;;;;;4992679;28;20241;-74
2023/12/14 05:06:13;;;;;;;4.80;3.13;;;7.40;99.90;;;;;;4985540;28;20237;-74
2023/12/14 05:08:39;;;;;;;3.17;2.50;;;7.40;99.90;;;;;;5000304;28;20237;-74
2023/12/14 05:11:05;;;;;;;6.53;2.50;;;7.40;99.90;;;;;;4988542;28;20226;-74
2023/12/14 05:13:31;;;;;;;3.43;3.13;;;7.50;99.90;;;;;;4980664;28;20279;-73
2023/12/14 05:15:59;;;;;;;3.83;2.70;;;7.50;99.90;;;;;;4988655;28;20226;-74
2023/12/14 05:18:25;;;;;;;4.60;3.47;;;7.40;99.90;;;;;;4992208;28;20227;-73
2023/12/14 05:20:51;;;;;;;3.63;2.93;;;7.50;99.90;;;;;;4992882;28;20452;-74
2023/12/14 05:23:16;;;;;;;3.33;2.80;;;7.50;99.90;;;;;;5008108;28;20296;-72
2023/12/14 05:25:42;;;;;;;7.13;3.57;;;7.50;99.90;;;;;;4991738;28;20481;-73
2023/12/14 05:28:08;;;;;;;11.20;3.97;;;7.50;99.90;;;;;;5006058;28;20221;-74
2023/12/14 05:30:33;;;;;;;4.90;3.50;;;7.50;99.90;;;;;;5016999;28;20252;-73
2023/12/14 05:32:59;;;;;;;6.37;3.27;;;7.50;99.90;;;;;;4996080;28;20229;-74
2023/12/14 05:35:25;;;;;;;8.33;3.60;;;7.50;99.90;;;;;;5002906;28;20724;-74
2023/12/14 05:37:51;;;;;;;7.70;4.00;;;7.50;99.90;;;;;;4989552;28;20688;-74
2023/12/14 05:40:17;;;;;;;8.50;3.90;;;7.50;99.90;;;;;;4978799;28;20285;-72
2023/12/14 05:42:43;;;;;;;7.33;4.53;;;7.60;99.90;;;;;;4982278;28;20488;-74
2023/12/14 05:45:09;;;;;;;5.83;3.77;;;7.60;99.90;;;;;;4989112;28;20712;-74
2023/12/14 05:47:35;;;;;;;7.10;4.97;;;7.60;99.90;;;;;;4997371;28;20228;-74
2023/12/14 05:50:01;;;;;;;9.10;5.73;;;7.60;99.90;;;;;;4991034;28;20466;-72
2023/12/14 05:52:27;;;;;;;9.00;5.20;;;7.60;99.90;;;;;;4995501;28;20799;-74
2023/12/14 05:54:53;;;;;;;9.17;4.70;;;7.60;99.90;;;;;;4981368;28;20464;-74
2023/12/14 05:57:19;;;;;;;7.23;4.93;;;7.50;99.90;;;;;;4997412;28;20461;-72
2023/12/14 05:59:44;;;;;;;7.60;4.20;;;7.50;99.90;;;;;;5005038;28;20218;-74
2023/12/14 06:02:10;;;;;;;9.63;5.13;;;7.60;99.90;;;;;;5007567;28;20228;-74
2023/12/14 06:04:36;;;;;;;8.53;4.20;;;7.60;99.90;;;;;;4995260;28;20222;-73
2023/12/14 06:07:01;;;;;;;6.97;5.30;;;7.60;99.90;;;;;;4992088;28;20230;-74
2023/12/14 06:09:34;;;;;;;8.93;7.60;;;7.60;99.90;;;;;;5001580;28;20210;-74
2023/12/14 06:12:03;;;;;;;9.70;6.30;;;7.60;99.90;;;;;;4988400;28;20272;-74
2023/12/14 06:14:30;;;;;;;10.13;6.07;;;7.60;99.90;;;;;;4987662;28;20452;-73
2023/12/14 06:16:56;;;;;;;8.77;4.93;;;7.60;99.90;;;;;;4988002;28;20518;-74
2023/12/14 06:19:22;;;;;;;5.83;4.50;;;7.50;99.90;;;;;;4987427;28;20548;-73
2023/12/14 06:21:48;;;;;;;8.93;5.00;;;7.60;99.90;;;;;;4997182;28;20576;-73
2023/12/14 06:24:14;;;;;;;7.03;4.23;;;7.60;99.90;;;;;;5002493;28;20763;-74
2023/12/14 06:26:43;;;;;;;9.07;4.47;;;7.60;99.90;;;;;;4975247;28;20476;-73
2023/12/14 06:29:12;;;;;;;7.23;4.60;;;7.60;99.90;;;;;;4998549;28;20284;-74
2023/12/14 06:31:38;;;;;;;5.20;4.20;;;7.60;99.90;;;;;;4999752;28;20515;-74
2023/12/14 06:34:05;;;;;;;7.00;4.70;;;7.60;99.90;;;;;;4981466;28;20978;-74
2023/12/14 06:36:31;;;;;;;7.33;4.37;;;7.60;99.90;;;;;;5001845;28;20461;-74
2023/12/14 06:38:58;;;;;;;6.60;4.23;;;7.60;99.90;;;;;;4993582;28;20513;-73
2023/12/14 06:41:25;;;;;;;5.70;3.87;;;7.60;99.90;;;;;;4998201;28;20481;-74
2023/12/14 06:43:52;;;;;;;7.13;3.93;;;7.60;99.90;;;;;;4995069;28;20484;-74
2023/12/14 06:46:18;;;;;;;8.43;4.80;;;7.60;99.90;;;;;;5003474;28;20500;-73
2023/12/14 06:48:45;;;;;;;6.90;4.30;;;7.70;99.90;;;;;;4982871;28;20508;-74
2023/12/14 06:51:11;;;;;;;8.80;4.80;;;7.70;99.90;;;;;;4988815;28;20461;-74
2023/12/14 06:53:40;;;;;;;6.50;4.60;;;7.60;99.90;;;;;;5000767;28;21014;-73
2023/12/14 06:56:09;;;;;;;9.30;4.50;;;7.60;99.90;;;;;;4998567;28;20614;-73
2023/12/14 06:58:35;;;;;;;6.63;4.43;;;7.60;99.90;;;;;;4983419;28;20527;-74
2023/12/14 07:01:01;;;;;;;5.37;3.87;;;7.60;99.90;;;;;;4996338;28;20531;-73
2023/12/14 07:03:26;;;;;;;7.33;4.10;;;7.70;99.90;;;;;;5011578;28;20962;-74
2023/12/14 07:05:52;;;;;;;7.27;4.03;;;7.70;99.90;;;;;;5010019;28;20222;-74
2023/12/14 07:08:18;;;;;;;7.03;4.73;;;7.70;99.90;;;;;;5015875;28;20217;-74
2023/12/14 07:10:43;;;;;;;8.40;4.60;;;7.70;99.90;;;;;;5011063;28;20279;-74
2023/12/14 07:13:09;;;;;;;6.90;4.97;;;7.60;99.90;;;;;;4993516;28;20719;-72
2023/12/14 07:15:35;;;;;;;7.83;4.67;;;7.60;99.90;;;;;;4993695;28;20703;-74
2023/12/14 07:18:00;;;;;;;12.27;4.47;;;7.60;99.90;;;;;;4976245;28;20647;-73
2023/12/14 07:20:27;;;;;;;7.80;4.50;;;7.70;99.90;;;;;;4976557;28;20225;-73
2023/12/14 07:22:53;;;;;;;9.70;5.07;;;7.70;99.90;;;;;;4992851;28;20245;-73
2023/12/14 07:25:18;;;;;;;7.30;4.30;;;7.70;99.90;;;;;;4983842;28;20983;-73
2023/12/14 07:27:46;;;;;;;6.47;4.20;;;7.70;99.90;;;;;;4984357;28;20699;-73
2023/12/14 07:30:12;;;;;;;6.97;4.80;;;7.70;99.90;;;;;;4998587;28;20214;-73
2023/12/14 07:32:38;;;;;;;8.57;4.80;;;7.70;99.90;;;;;;4977132;28;20456;-73
2023/12/14 07:35:04;;;;;;;6.27;4.30;;;7.70;99.90;;;;;;4986607;28;20525;-73
2023/12/14 07:37:30;;;;;;;5.43;3.90;;;7.70;99.90;;;;;;4987783;28;20267;-74
2023/12/14 07:39:56;;;;;;;8.03;4.27;;;7.70;99.90;;;;;;4994414;28;20489;-73
2023/12/14 07:42:22;;;;;;;7.30;4.40;;;7.70;99.90;;;;;;4990306;28;20222;-72
2023/12/14 07:44:48;;;;;;;7.67;4.67;;;7.70;99.90;;;;;;4974740;28;20508;-73
2023/12/14 07:47:15;;;;;;;10.20;4.77;;;7.70;99.90;;;;;;4996408;28;20330;-73
2023/12/14 07:49:40;;;;;;;6.67;4.73;;;7.70;99.90;;;;;;4977587;28;20548;-72
2023/12/14 07:52:06;;;;;;;6.57;4.80;;;7.70;99.90;;;;;;4998297;28;20332;-73
2023/12/14 07:54:32;;;;;;;7.73;4.53;;;7.80;99.90;;;;;;4980828;28;20696;-73
2023/12/14 07:56:58;;;;;;;7.80;4.53;;;7.70;99.90;;;;;;4994739;28;20233;-73
2023/12/14 07:59:23;;;;;;;11.50;5.73;;;7.80;99.90;;;;;;4983753;28;20230;-72
2023/12/14 08:01:49;;;;;;;8.67;5.37;;;7.80;99.90;;;;;;4976985;28;20225;-74
2023/12/14 08:04:15;;;;;;;10.60;6.00;;;7.80;99.90;;;;;;4980617;28;20250;-74
2023/12/14 08:06:41;;;;;;;10.80;5.70;;;7.80;99.90;;;;;;4992102;28;20792;-74
2023/12/14 08:09:07;;;;;;;12.23;6.47;;;7.80;99.90;;;;;;5004426;28;20260;-74
2023/12/14 08:11:33;;;;;;;10.40;5.87;;;7.80;99.90;;;;;;5000352;28;20283;-74
2023/12/14 08:13:59;;;;;;;11.50;6.00;;;7.90;99.90;;;;;;4993727;28;20462;-73
2023/12/14 08:16:24;;;;;;;13.17;7.10;;;7.80;99.90;;;;;;4980026;28;20460;-73
2023/12/14 08:18:50;;;;;;;13.80;6.87;;;7.80;99.90;;;;;;5003653;28;20225;-74
2023/12/14 08:21:17;;;;;;;9.50;5.60;;;7.80;99.90;;;;;;5006659;28;20229;-73
2023/12/14 08:23:43;;;;;;;11.23;6.20;;;7.80;99.90;;;;;;5027175;28;20225;-73
2023/12/14 08:26:11;;;;;;;10.57;6.20;;;7.80;99.90;;;;;;5005367;28;20542;-73
2023/12/14 08:28:37;;;;;;;12.00;6.63;;;7.80;99.90;;;;;;5003153;28;20654;-74
2023/12/14 08:31:04;;;;;;;10.50;5.60;;;7.70;99.90;;;;;;5014543;28;20489;-73
2023/12/14 08:33:30;;;;;;;11.17;6.60;;;7.80;99.90;;;;;;5011009;28;20222;-73
2023/12/14 08:35:56;;;;;;;13.03;7.00;;;7.70;99.90;;;;;;4995127;28;20461;-73
2023/12/14 08:38:22;;;;;;;14.87;7.33;;;7.70;99.90;;;;;;4998505;28;20541;-73
2023/12/14 08:40:47;;;;;;;11.27;6.97;;;7.70;99.90;;;;;;4990018;28;20537;-74
2023/12/14 08:43:13;;;;;;;15.10;8.07;;;7.80;99.90;;;;;;4991219;28;20233;-74
2023/12/14 08:45:39;;;;;;;19.50;10.63;;;7.80;99.90;;;;;;5004150;28;20784;-74
2023/12/14 08:48:05;;;;;;;14.40;8.83;;;7.80;99.90;;;;;;4991674;28;20225;-74
2023/12/14 08:50:31;;;;;;;14.43;7.90;;;7.80;99.90;;;;;;5006214;28;20271;-74
2023/12/14 08:52:59;;;;;;;14.53;7.97;;;7.80;99.90;;;;;;4991087;28;20456;-74
2023/12/14 08:55:26;;;;;;;15.77;7.50;;;7.80;99.90;;;;;;5020061;28;20209;-74
2023/12/14 08:57:52;;;;;;;13.47;7.53;;;7.80;99.90;;;;;;4991682;28;20457;-74
2023/12/14 09:00:18;;;;;;;13.20;7.50;;;7.80;99.90;;;;;;5005092;28;20457;-74
2023/12/14 09:02:45;;;;;;;12.80;7.30;;;7.90;99.90;;;;;;5007982;28;20489;-74
2023/12/14 09:05:16;;;;;;;13.87;7.50;;;7.90;99.90;;;;;;5000191;28;20469;-74
2023/12/14 09:07:42;;;;;;;10.53;5.33;;;8.00;99.90;;;;;;5002467;28;20882;-74
2023/12/14 09:10:08;;;;;;;11.40;6.60;;;8.00;99.90;;;;;;5006300;28;20452;-72
2023/12/14 09:12:34;;;;;;;8.73;5.70;;;8.00;99.90;;;;;;5004212;28;20449;-75
2023/12/14 09:15:00;;;;;;;6.90;4.37;;;8.00;99.90;;;;;;4990301;28;20453;-74
2023/12/14 09:17:32;;;;;;;11.67;5.73;;;8.00;99.90;;;;;;4997613;28;20226;-74
2023/12/14 09:19:59;;;;;;;8.23;4.70;;;8.10;99.90;;;;;;5007561;28;20448;-74
2023/12/14 09:22:25;;;;;;;7.63;5.10;;;8.00;99.90;;;;;;5003594;28;20468;-74
2023/12/14 09:24:50;;;;;;;11.37;5.57;;;8.00;99.90;;;;;;5006326;28;20503;-74
2023/12/14 09:27:17;;;;;;;9.10;4.80;;;8.00;99.90;;;;;;5005527;28;20758;-74
2023/12/14 09:29:42;;;;;;;9.07;5.90;;;8.00;99.90;;;;;;5007215;28;20218;-74
2023/12/14 09:32:08;;;;;;;7.57;5.53;;;8.10;99.90;;;;;;4991084;28;20444;-74
2023/12/14 09:34:34;;;;;;;13.90;5.00;;;8.10;99.90;;;;;;4981363;28;20253;-74
2023/12/14 09:37:00;;;;;;;11.33;5.30;;;8.10;99.90;;;;;;4998926;28;20461;-74
2023/12/14 09:39:27;;;;;;;9.37;5.70;;;8.10;99.90;;;;;;4992539;28;20223;-74
2023/12/14 09:42:05;;;;;;;9.57;5.50;;;8.10;99.90;;;;;;5003939;28;20268;-74
2023/12/14 09:44:32;;;;;;;9.90;5.73;;;8.10;99.90;;;;;;5015423;28;20512;-74
2023/12/14 09:46:59;;;;;;;8.80;5.70;;;8.20;99.90;;;;;;5015858;28;20480;-73
2023/12/14 09:49:29;;;;;;;8.80;5.10;;;8.20;99.90;;;;;;5006340;28;20988;-73
2023/12/14 09:51:58;;;;;;;8.33;5.00;;;8.20;99.90;;;;;;5010480;28;20488;-73
2023/12/14 09:54:25;;;;;;;9.33;5.23;;;8.30;99.90;;;;;;5006252;28;20975;-74
2023/12/14 09:56:52;;;;;;;8.80;4.53;;;8.30;99.90;;;;;;5021486;28;20455;-74
2023/12/14 09:59:19;;;;;;;9.87;5.57;;;8.30;99.90;;;;;;5010112;28;20479;-74
2023/12/14 10:01:45;;;;;;;10.67;5.53;;;8.30;99.90;;;;;;5002697;28;20450;-74
2023/12/14 10:04:11;;;;;;;10.50;6.13;;;8.30;99.90;;;;;;5000593;28;20456;-73
2023/12/14 10:06:38;;;;;;;9.10;5.97;;;8.30;99.90;;;;;;5000363;28;20489;-75
2023/12/14 10:09:04;;;;;;;9.13;6.17;;;8.30;99.90;;;;;;4997278;28;20688;-74
2023/12/14 10:11:30;;;;;;;13.77;8.53;;;8.30;99.90;;;;;;5008996;28;20476;-73
2023/12/14 10:13:56;;;;;;;13.77;7.50;;;8.30;99.90;;;;;;4991027;28;20472;-75
2023/12/14 10:16:32;;;;;;;13.70;7.17;;;8.30;99.90;;;;;;5005695;28;20222;-74
2023/12/14 10:18:58;;;;;;;13.43;7.47;;;8.30;99.90;;;;;;4993962;28;20209;-75
2023/12/14 10:21:28;;;;;;;14.80;7.50;;;8.30;99.90;;;;;;5011657;28;20449;-75
2023/12/14 10:23:57;;;;;;;16.27;9.37;;;8.30;99.90;;;;;;5015954;28;20849;-74
2023/12/14 10:26:25;;;;;;;15.77;8.90;;;8.30;99.90;;;;;;5010916;28;20732;-72
2023/12/14 10:28:51;;;;;;;20.57;9.87;;;8.30;99.90;;;;;;4992278;28;20572;-75
2023/12/14 10:31:19;;;;;;;14.20;7.47;;;8.40;99.90;;;;;;5009371;28;20457;-74
2023/12/14 10:33:45;;;;;;;15.87;7.70;;;8.40;99.90;;;;;;5003791;28;20496;-74
2023/12/14 10:36:13;;;;;;;20.07;7.27;;;8.40;99.90;;;;;;4986882;28;20516;-75
2023/12/14 10:38:42;;;;;;;14.33;8.40;;;8.40;99.90;;;;;;5006521;28;20848;-74
2023/12/14 10:41:09;;;;;;;10.90;6.13;;;8.40;99.90;;;;;;4988299;28;20488;-74
2023/12/14 10:43:39;;;;;;;13.20;7.63;;;8.30;99.90;;;;;;5006158;28;20479;-74
2023/12/14 10:46:07;;;;;;;11.47;6.60;;;8.30;99.90;;;;;;5003154;28;20457;-73
2023/12/14 10:48:41;;;;;;;13.80;7.63;;;8.30;99.90;;;;;;4994028;28;20546;-74
2023/12/14 10:51:08;;;;;;;11.43;6.80;;;8.40;99.90;;;;;;5004398;28;20447;-74
2023/12/14 10:53:34;;;;;;;11.03;6.60;;;8.40;99.90;;;;;;5000837;28;20441;-74
2023/12/14 10:56:06;;;;;;;13.77;7.90;;;8.30;99.90;;;;;;5004849;28;20540;-75
2023/12/14 10:58:55;;;;;;;10.97;5.80;;;8.40;99.90;;;;;;5004781;28;20485;-73
2023/12/14 11:01:24;;;;;;;12.03;6.77;;;8.40;99.90;;;;;;4988766;28;20445;-74
2023/12/14 11:03:53;;;;;;;10.00;6.27;;;8.40;99.90;;;;;;5012712;28;20507;-74
2023/12/14 11:06:32;;;;;;;11.27;6.20;;;8.30;99.90;;;;;;4991071;28;20538;-74
2023/12/14 11:09:10;;;;;;;10.70;6.47;;;8.30;99.90;;;;;;5002610;28;20454;-74
2023/12/14 11:11:57;;;;;;;9.20;5.50;;;8.30;99.90;;;;;;5000795;28;20457;-74
2023/12/14 11:14:24;;;;;;;11.63;6.17;;;8.30;99.90;;;;;;4992594;28;20621;-73
2023/12/14 11:16:54;;;;;;;11.53;6.20;;;8.30;99.90;;;;;;4997795;28;20453;-74
2023/12/14 11:19:25;;;;;;;10.83;6.13;;;8.30;99.90;;;;;;4989998;28;20454;-73
2023/12/14 11:21:56;;;;;;;10.83;6.47;;;8.40;99.90;;;;;;4992001;28;20491;-74
2023/12/14 11:24:22;;;;;;;11.50;6.07;;;8.30;99.90;;;;;;5000624;28;20465;-72
2023/12/14 11:26:51;;;;;;;11.13;7.43;;;8.30;99.90;;;;;;4989451;28;20477;-74
2023/12/14 11:29:19;;;;;;;8.80;5.40;;;8.40;99.90;;;;;;4984013;28;20512;-74
2023/12/14 11:31:45;;;;;;;11.27;6.87;;;8.40;99.90;;;;;;5000972;28;20483;-75
2023/12/14 11:34:11;;;;;;;13.07;6.33;;;8.40;99.90;;;;;;4985775;28;20467;-73
2023/12/14 11:36:41;;;;;;;12.67;6.80;;;8.40;99.90;;;;;;4992175;28;20488;-74
2023/12/14 11:39:09;;;;;;;10.90;8.60;;;8.40;99.90;;;;;;4987371;28;20457;-73
2023/12/14 11:41:36;;;;;;;12.70;7.93;;;8.40;99.90;;;;;;4999164;28;20476;-74
2023/12/14 11:44:01;;;;;;;9.40;6.03;;;8.40;99.90;;;;;;4996937;28;20484;-73
2023/12/14 11:46:29;;;;;;;8.90;6.77;;;8.40;99.90;;;;;;4980906;28;20503;-73
2023/12/14 11:48:56;;;;;;;11.33;8.37;;;8.40;99.90;;;;;;4993305;28;20644;-75
2023/12/14 11:51:23;;;;;;;19.10;14.00;;;8.50;99.90;;;;;;5001789;28;20453;-73
2023/12/14 11:53:49;;;;;;;15.37;13.30;;;8.40;99.90;;;;;;4982081;28;20507;-74
2023/12/14 11:56:18;;;;;;;14.70;9.83;;;8.40;99.90;;;;;;4987143;28;20493;-75
2023/12/14 11:58:44;;;;;;;13.60;10.03;;;8.40;99.90;;;;;;4993842;28;20477;-75
2023/12/14 12:01:14;;;;;;;17.00;12.10;;;8.40;99.90;;;;;;4986562;28;20461;-74
2023/12/14 12:03:40;;;;;;;13.93;11.10;;;8.40;99.90;;;;;;4996815;28;20836;-74
2023/12/14 12:06:06;;;;;;;11.67;8.57;;;8.40;99.90;;;;;;4985498;28;20465;-74
2023/12/14 12:08:41;;;;;;;9.60;6.87;;;8.40;99.90;;;;;;5003082;28;20229;-75
2023/12/14 12:11:07;;;;;;;11.80;5.97;;;8.50;99.90;;;;;;5013165;28;20222;-74
2023/12/14 12:13:34;;;;;;;9.70;5.60;;;8.50;99.90;;;;;;4992683;28;20472;-74
2023/12/14 12:16:00;;;;;;;8.17;4.50;;;8.50;99.90;;;;;;4980241;28;20226;-74
2023/12/14 12:18:27;;;;;;;7.50;4.37;;;8.40;99.90;;;;;;4995842;28;20552;-73
2023/12/14 12:20:53;;;;;;;8.57;4.50;;;8.40;99.90;;;;;;4994412;28;20229;-75
2023/12/14 12:23:19;;;;;;;6.53;3.87;;;8.40;99.90;;;;;;4986915;28;20470;-75
2023/12/14 12:25:44;;;;;;;6.70;4.00;;;8.40;99.90;;;;;;4987306;28;20221;-75
2023/12/14 12:28:10;;;;;;;5.50;3.63;;;8.40;99.90;;;;;;4994954;28;20309;-75
2023/12/14 12:30:36;;;;;;;7.37;4.97;;;8.30;99.90;;;;;;4983706;28;20704;-73
2023/12/14 12:33:01;;;;;;;5.70;3.60;;;8.30;99.90;;;;;;4995012;28;20222;-74
2023/12/14 12:35:30;;;;;;;5.93;3.60;;;8.30;99.90;;;;;;4998267;28;20284;-74
2023/12/14 12:37:55;;;;;;;9.10;4.40;;;8.30;99.90;;;;;;5009954;28;20229;-74
2023/12/14 12:40:22;;;;;;;7.33;4.30;;;8.30;99.90;;;;;;4988801;28;20476;-74
2023/12/14 12:42:49;;;;;;;6.83;3.43;;;8.30;99.90;;;;;;4996734;28;20675;-74
2023/12/14 12:45:18;;;;;;;3.60;2.80;;;8.30;99.90;;;;;;5000555;28;20488;-74
2023/12/14 12:47:45;;;;;;;4.30;2.90;;;8.30;99.90;;;;;;4988888;28;20970;-73
2023/12/14 12:50:11;;;;;;;6.30;3.17;;;8.30;99.90;;;;;;5007062;28;20955;-73
2023/12/14 12:52:37;;;;;;;8.53;4.20;;;8.30;99.90;;;;;;4996893;28;20448;-72